createdAt,value
2019-01-23T05:01:45.855Z,87.70
2019-01-23T05:04:20.992Z,87.90
2019-01-23T05:06:56.152Z,88.20
2019-01-23T05:09:31.211Z,88.80
2019-01-23T05:12:06.260Z,89.30
2019-01-23T05:14:41.348Z,89.60
2019-01-23T06:01:41.967Z,91.50
2019-01-23T06:04:16.799Z,91.40
2019-01-23T06:06:52.010Z,91.30
2019-01-23T06:09:14.443Z,91.20
2019-01-23T06:11:56.356Z,91.20
2019-01-23T06:14:31.407Z,91.30
2019-01-23T07:02:53.795Z,91.60
2019-01-23T07:05:28.930Z,91.50
2019-01-23T07:08:03.792Z,91.50
2019-01-23T07:10:39.022Z,91.40
2019-01-23T07:13:14.080Z,91.40
2019-01-23T08:02:30.023Z,90.90
2019-01-23T08:04:52.494Z,90.80
2019-01-23T08:07:27.542Z,90.70
2019-01-23T08:10:02.749Z,90.60
2019-01-23T08:12:38.792Z,90.70
2019-01-23T09:01:59.107Z,84.50
2019-01-23T09:04:35.499Z,83.90
2019-01-23T09:07:10.499Z,82.80
2019-01-23T09:09:45.493Z,81.70
2019-01-23T09:12:20.649Z,81.20
2019-01-23T09:14:55.605Z,82.00
2019-01-23T10:00:14.820Z,63.20
2019-01-23T10:02:51.370Z,61.60
2019-01-23T10:05:26.964Z,60.60
2019-01-23T10:08:01.506Z,60.10
2019-01-23T10:10:24.969Z,59.80
2019-01-23T10:13:06.955Z,58.00
2019-01-23T11:00:15.951Z,56.10
2019-01-23T11:02:51.435Z,55.90
2019-01-23T11:05:28.008Z,55.70
2019-01-23T11:08:03.026Z,55.20
2019-01-23T11:10:38.178Z,55.30
2019-01-23T11:13:13.243Z,56.80
2019-01-23T12:00:13.971Z,57.60
2019-01-23T12:02:49.623Z,57.20
2019-01-23T12:05:24.407Z,57.60
2019-01-23T12:07:47.196Z,57.50
2019-01-23T12:10:12.817Z,57.30
2019-01-23T12:12:35.386Z,57.00
2019-01-23T12:14:57.915Z,57.90
2019-01-23T13:00:38.721Z,55.30
2019-01-23T13:03:02.381Z,55.10
2019-01-23T13:05:25.048Z,55.40
2019-01-23T13:07:47.584Z,55.80
2019-01-23T13:10:22.607Z,55.80
2019-01-23T13:12:57.956Z,55.30
2019-01-23T14:00:29.127Z,62.40
2019-01-23T14:02:51.714Z,62.60
2019-01-23T14:05:14.652Z,63.50
2019-01-23T14:07:38.211Z,63.80
2019-01-23T14:10:00.757Z,65.10
2019-01-23T14:12:23.226Z,64.00
2019-01-23T14:14:45.978Z,64.20
2019-01-23T15:02:10.357Z,71.70
2019-01-23T15:04:33.093Z,71.50
2019-01-23T15:06:55.631Z,73.20
2019-01-23T15:09:18.173Z,73.80
2019-01-23T15:11:40.619Z,74.00
2019-01-23T15:14:03.666Z,74.70
2019-01-23T15:16:26.146Z,73.40
2019-01-23T15:18:48.702Z,73.50
2019-01-23T15:21:11.330Z,72.90
2019-01-23T15:23:33.882Z,73.20
2019-01-23T15:25:56.651Z,73.20
2019-01-23T15:28:31.155Z,74.00
2019-01-23T15:30:53.641Z,74.90
2019-01-23T15:33:16.198Z,74.40
2019-01-23T15:35:39.815Z,74.70
2019-01-23T15:38:02.307Z,74.70
2019-01-23T15:40:27.627Z,75.10
2019-01-23T15:42:50.342Z,75.70
2019-01-23T15:45:14.917Z,76.60
2019-01-23T15:47:37.537Z,76.50
2019-01-23T15:50:00.218Z,78.10
2019-01-23T15:52:22.709Z,78.80
2019-01-23T15:54:45.431Z,79.30
2019-01-23T15:57:08.576Z,79.60
2019-01-23T15:59:31.539Z,79.40
2019-01-23T16:01:54.010Z,79.50
2019-01-23T16:04:16.428Z,79.00
2019-01-23T16:06:39.585Z,79.30
2019-01-23T16:09:04.179Z,79.40
2019-01-23T16:11:27.816Z,79.50
2019-01-23T16:13:50.380Z,79.00
2019-01-23T17:02:01.434Z,85.10
2019-01-23T17:04:23.902Z,85.50
2019-01-23T17:06:46.401Z,87.40
2019-01-23T17:09:09.059Z,87.20
2019-01-23T17:11:31.595Z,87.30
2019-01-23T17:13:54.151Z,87.60
2019-01-23T18:15:25.443Z,86.10
2019-01-23T18:17:47.947Z,86.30
2019-01-23T18:20:13.664Z,86.50
2019-01-23T18:22:36.550Z,86.50
2019-01-23T18:25:11.785Z,85.90
2019-01-23T18:27:46.654Z,85.60
2019-01-23T19:02:35.865Z,84.70
2019-01-23T19:04:58.635Z,85.40
2019-01-23T19:07:21.162Z,84.60
2019-01-23T19:09:43.594Z,84.50
2019-01-23T19:12:06.342Z,83.90
2019-01-23T19:14:28.930Z,84.10
2019-01-23T20:02:17.834Z,83.00
2019-01-23T20:04:41.422Z,83.50
2019-01-23T20:07:03.964Z,83.60
2019-01-23T20:09:26.523Z,84.20
2019-01-23T20:11:49.806Z,83.90
2019-01-23T20:14:12.359Z,83.70
2019-01-23T21:01:54.477Z,89.90
2019-01-23T21:04:17.006Z,90.50
2019-01-23T21:06:39.436Z,90.90
2019-01-23T21:09:01.900Z,90.60
2019-01-23T21:11:26.230Z,90.70
2019-01-23T21:13:48.798Z,90.70
